Time;durP1;ratioP1;P1;durP2;ratioP2;P2;SDS_P1;SDS_P2;PMS_P1;PMS_P2;Temp;Humidity;BMP_temperature;BMP_pressure;BME280_temperature;BME280_humidity;BME280_pressure;Samples;Min_cycle;Max_cycle;Signal;HPM_P1;HPM_P2
2021/11/10 00:01:31;;;;;;;28.17;25.50;;;3.40;99.90;;;;;;5034098;28;20463;-76
2021/11/10 00:03:58;;;;;;;30.40;27.20;;;3.40;99.90;;;;;;5033580;28;20464;-77
2021/11/10 00:06:25;;;;;;;32.50;29.50;;;3.40;99.90;;;;;;5033747;28;20947;-76
2021/11/10 00:08:52;;;;;;;33.00;29.50;;;3.40;99.90;;;;;;5033590;28;20461;-76
2021/11/10 00:11:18;;;;;;;33.90;28.63;;;3.40;99.90;;;;;;5033040;28;20455;-76
2021/11/10 00:13:48;;;;;;;37.47;30.17;;;3.50;99.90;;;;;;5032793;28;20685;-76
2021/11/10 00:16:14;;;;;;;31.73;28.50;;;3.40;99.90;;;;;;5032565;28;20481;-77
2021/11/10 00:18:41;;;;;;;32.90;28.37;;;3.30;99.90;;;;;;5032806;28;20462;-78
2021/11/10 00:21:08;;;;;;;36.23;31.13;;;3.20;99.90;;;;;;5032639;28;20457;-78
2021/11/10 00:23:35;;;;;;;31.30;28.40;;;3.20;99.90;;;;;;5032544;28;20453;-77
2021/11/10 00:26:02;;;;;;;33.30;29.00;;;3.20;99.90;;;;;;5032545;28;20461;-77
2021/11/10 00:28:29;;;;;;;31.23;28.03;;;3.20;99.90;;;;;;5032724;28;20858;-76
2021/11/10 00:30:57;;;;;;;36.00;27.37;;;3.20;99.90;;;;;;5032460;28;20477;-76
2021/11/10 00:33:24;;;;;;;31.77;28.43;;;3.10;99.90;;;;;;5032617;28;20817;-76
2021/11/10 00:35:51;;;;;;;28.57;25.87;;;3.20;99.90;;;;;;5032506;28;20480;-76
2021/11/10 00:38:18;;;;;;;29.33;26.20;;;3.10;99.90;;;;;;5032238;28;20489;-76
2021/11/10 00:40:44;;;;;;;32.10;28.83;;;2.90;99.90;;;;;;5032451;28;20772;-76
2021/11/10 00:43:12;;;;;;;28.63;25.93;;;2.90;99.90;;;;;;5032682;28;20501;-76
2021/11/10 00:45:38;;;;;;;33.50;26.93;;;3.00;99.90;;;;;;5032584;28;20472;-76
2021/11/10 00:48:07;;;;;;;29.67;26.63;;;3.10;99.90;;;;;;5032536;28;20455;-75
2021/11/10 00:50:34;;;;;;;30.03;26.90;;;3.10;99.90;;;;;;5032604;28;20456;-76
2021/11/10 00:53:03;;;;;;;31.43;27.80;;;3.10;99.90;;;;;;5032461;28;20958;-76
2021/11/10 00:55:30;;;;;;;30.27;27.37;;;3.10;99.90;;;;;;5032388;28;20453;-77
2021/11/10 00:57:56;;;;;;;32.43;29.20;;;3.20;99.90;;;;;;5032299;28;20488;-76
2021/11/10 01:00:24;;;;;;;31.17;28.07;;;3.10;99.90;;;;;;5032224;28;20444;-75
2021/11/10 01:02:51;;;;;;;32.13;28.87;;;3.00;99.90;;;;;;5032335;28;20479;-75
2021/11/10 01:05:19;;;;;;;31.83;28.60;;;2.90;99.90;;;;;;5032333;28;20935;-74
2021/11/10 01:07:46;;;;;;;31.53;28.37;;;2.90;99.90;;;;;;5032024;28;20458;-75
2021/11/10 01:10:13;;;;;;;28.50;25.90;;;2.90;99.90;;;;;;5032221;28;20792;-74
2021/11/10 01:12:40;;;;;;;27.97;25.17;;;3.00;99.90;;;;;;5032233;28;20453;-75
2021/11/10 01:15:11;;;;;;;29.40;26.60;;;3.10;99.90;;;;;;5031816;28;20491;-76
2021/11/10 01:17:38;;;;;;;31.37;28.23;;;3.10;99.90;;;;;;5032054;28;20490;-75
2021/11/10 01:20:06;;;;;;;32.87;29.13;;;3.10;99.90;;;;;;5031982;28;20455;-75
2021/11/10 01:22:34;;;;;;;30.90;27.67;;;3.10;99.90;;;;;;5031725;28;20448;-77
2021/11/10 01:25:00;;;;;;;30.70;27.53;;;3.00;99.90;;;;;;5031338;28;20960;-75
2021/11/10 01:27:27;;;;;;;31.67;28.90;;;3.00;99.90;;;;;;5031992;28;20445;-76
2021/11/10 01:29:54;;;;;;;29.27;26.50;;;3.00;99.90;;;;;;5032044;28;20458;-75
2021/11/10 01:32:21;;;;;;;28.90;26.10;;;3.00;99.90;;;;;;5031924;28;20456;-75
2021/11/10 01:34:47;;;;;;;37.90;29.43;;;3.00;99.90;;;;;;5031544;28;20483;-76
2021/11/10 01:37:14;;;;;;;33.50;29.87;;;3.00;99.90;;;;;;5031627;28;20893;-75
2021/11/10 01:39:42;;;;;;;33.97;29.07;;;3.00;99.90;;;;;;5031776;28;20452;-75
2021/11/10 01:42:10;;;;;;;32.20;29.33;;;2.90;99.90;;;;;;5031687;28;20460;-75
2021/11/10 01:44:39;;;;;;;33.07;28.60;;;2.80;99.90;;;;;;5031627;28;20567;-75
2021/11/10 01:47:09;;;;;;;34.03;30.43;;;2.80;99.90;;;;;;5031736;28;20448;-75
2021/11/10 01:49:37;;;;;;;34.10;31.03;;;2.70;99.90;;;;;;5031387;28;20461;-75
2021/11/10 01:52:05;;;;;;;33.40;30.00;;;2.70;99.90;;;;;;5031639;28;20466;-75
2021/11/10 01:54:34;;;;;;;38.17;32.67;;;2.70;99.90;;;;;;5031356;28;20460;-76
2021/11/10 01:57:02;;;;;;;34.17;30.87;;;2.60;99.90;;;;;;5031530;28;20491;-75
2021/11/10 01:59:32;;;;;;;34.10;30.70;;;2.60;99.90;;;;;;5031364;28;20468;-76
2021/11/10 02:01:59;;;;;;;32.70;29.40;;;2.60;99.90;;;;;;5031221;28;21042;-74
2021/11/10 02:04:26;;;;;;;36.00;32.50;;;2.60;99.90;;;;;;5031340;28;20455;-75
2021/11/10 02:06:53;;;;;;;33.87;30.07;;;2.60;99.90;;;;;;5031260;28;21002;-74
2021/11/10 02:09:22;;;;;;;31.87;28.73;;;2.60;99.90;;;;;;5031234;28;20452;-76
2021/11/10 02:11:49;;;;;;;30.40;27.60;;;2.60;99.90;;;;;;5031118;28;20873;-75
2021/11/10 02:14:18;;;;;;;33.30;30.13;;;2.60;99.90;;;;;;5031255;28;20448;-76
2021/11/10 02:16:46;;;;;;;33.20;29.93;;;2.60;99.90;;;;;;5031101;28;20458;-76
2021/11/10 02:19:14;;;;;;;32.30;29.50;;;2.70;99.90;;;;;;5031129;28;20502;-76
2021/11/10 02:21:46;;;;;;;34.63;31.33;;;2.50;99.90;;;;;;5031146;28;20518;-76
2021/11/10 02:24:13;;;;;;;31.73;28.83;;;2.60;99.90;;;;;;5031167;28;20465;-75
2021/11/10 02:26:41;;;;;;;31.67;28.73;;;2.50;99.90;;;;;;5031032;28;20973;-76
2021/11/10 02:29:08;;;;;;;33.07;29.73;;;2.50;99.90;;;;;;5031209;28;20550;-77
2021/11/10 02:31:35;;;;;;;33.90;30.23;;;2.50;99.90;;;;;;5030991;28;21005;-75
2021/11/10 02:34:02;;;;;;;35.20;31.80;;;2.50;99.90;;;;;;5031132;28;20521;-76
2021/11/10 02:36:30;;;;;;;34.93;31.30;;;2.40;99.90;;;;;;5031338;28;20445;-77
2021/11/10 02:39:00;;;;;;;33.37;29.87;;;2.40;99.90;;;;;;5035012;28;20495;-76
2021/11/10 02:41:27;;;;;;;33.20;29.97;;;2.40;99.90;;;;;;5035019;28;20459;-75
2021/11/10 02:43:54;;;;;;;32.70;29.30;;;2.30;99.90;;;;;;5034914;28;20565;-76
2021/11/10 02:46:21;;;;;;;31.10;27.90;;;2.40;99.90;;;;;;5034816;28;20458;-75
2021/11/10 02:48:48;;;;;;;31.43;28.20;;;2.40;99.90;;;;;;5034928;28;20929;-75
2021/11/10 02:51:15;;;;;;;30.80;27.97;;;2.30;99.90;;;;;;5034759;28;20460;-75
2021/11/10 02:53:42;;;;;;;31.40;28.17;;;2.30;99.90;;;;;;5034685;28;20448;-76
2021/11/10 02:56:10;;;;;;;31.63;28.40;;;2.30;99.90;;;;;;5034844;28;20453;-75
2021/11/10 02:58:38;;;;;;;32.67;28.77;;;2.30;99.90;;;;;;5034494;28;21038;-75
2021/11/10 03:01:06;;;;;;;31.53;28.60;;;2.30;99.90;;;;;;5034735;28;20457;-75
2021/11/10 03:03:33;;;;;;;31.43;28.00;;;2.30;99.90;;;;;;5034525;28;20461;-74
2021/11/10 03:06:00;;;;;;;29.37;26.10;;;2.30;99.90;;;;;;5034469;28;20460;-75
2021/11/10 03:08:27;;;;;;;31.40;28.43;;;2.30;99.90;;;;;;5034462;28;20442;-75
2021/11/10 03:10:54;;;;;;;29.47;26.50;;;2.20;99.90;;;;;;5034281;28;20956;-75
2021/11/10 03:13:22;;;;;;;31.87;28.90;;;2.20;99.90;;;;;;5034290;28;20465;-75
2021/11/10 03:15:49;;;;;;;33.13;30.00;;;2.20;99.90;;;;;;5034262;28;20486;-74
2021/11/10 03:18:16;;;;;;;29.97;27.27;;;2.20;99.90;;;;;;5034430;28;20852;-74
2021/11/10 03:20:43;;;;;;;34.53;31.13;;;2.30;99.90;;;;;;5034548;28;20456;-73
2021/11/10 03:23:10;;;;;;;33.60;30.00;;;2.30;99.90;;;;;;5034210;28;20464;-75
2021/11/10 03:25:37;;;;;;;30.97;28.27;;;2.30;99.90;;;;;;5034213;28;20453;-75
2021/11/10 03:28:04;;;;;;;32.03;28.90;;;2.30;99.90;;;;;;5034044;28;20952;-75
2021/11/10 03:30:32;;;;;;;33.90;30.53;;;2.30;99.90;;;;;;5033920;28;20484;-75
2021/11/10 03:32:59;;;;;;;33.23;30.03;;;2.30;99.90;;;;;;5034133;28;21118;-75
2021/11/10 03:35:26;;;;;;;32.23;29.17;;;2.40;99.90;;;;;;5034151;28;20458;-76
2021/11/10 03:37:52;;;;;;;30.97;27.97;;;2.40;99.90;;;;;;5033896;28;20485;-75
2021/11/10 03:40:19;;;;;;;31.30;27.77;;;2.40;99.90;;;;;;5033814;28;20958;-77
2021/11/10 03:42:46;;;;;;;28.37;25.87;;;2.40;99.90;;;;;;5034059;28;20502;-77
2021/11/10 03:45:13;;;;;;;31.90;28.73;;;2.50;99.90;;;;;;5034011;28;20451;-76
2021/11/10 03:47:41;;;;;;;29.87;26.87;;;2.50;99.90;;;;;;5033266;28;20749;-77
2021/11/10 03:50:09;;;;;;;27.80;25.17;;;2.50;99.90;;;;;;5033776;28;20455;-77
2021/11/10 03:52:35;;;;;;;28.00;25.70;;;2.50;99.90;;;;;;5033670;28;20462;-77
2021/11/10 03:55:03;;;;;;;31.20;28.17;;;2.50;99.90;;;;;;5033387;28;20455;-76
2021/11/10 03:57:29;;;;;;;31.33;28.53;;;2.50;99.90;;;;;;5033514;28;20968;-76
2021/11/10 03:59:56;;;;;;;34.70;29.57;;;2.50;99.90;;;;;;5033548;28;20460;-76
2021/11/10 04:02:23;;;;;;;33.10;29.73;;;2.50;99.90;;;;;;5033584;28;20451;-76
2021/11/10 04:04:51;;;;;;;32.10;28.80;;;2.50;99.90;;;;;;5033424;28;20463;-75
2021/11/10 04:07:18;;;;;;;28.87;25.63;;;2.50;99.90;;;;;;5033302;28;20459;-76
2021/11/10 04:09:44;;;;;;;29.80;27.23;;;2.50;99.90;;;;;;5033758;28;20451;-75
2021/11/10 04:12:11;;;;;;;29.60;26.70;;;2.50;99.90;;;;;;5034946;28;20468;-73
2021/11/10 04:14:38;;;;;;;29.43;26.80;;;2.50;99.90;;;;;;5033000;28;20965;-75
2021/11/10 04:17:09;;;;;;;31.30;28.10;;;2.40;99.90;;;;;;5033242;28;20461;-75
2021/11/10 04:19:36;;;;;;;31.20;28.30;;;2.50;99.90;;;;;;5033044;28;20579;-76
2021/11/10 04:22:04;;;;;;;31.40;28.77;;;2.50;99.90;;;;;;5033280;28;20460;-75
2021/11/10 04:24:31;;;;;;;32.23;28.93;;;2.50;99.90;;;;;;5033220;28;20464;-75
2021/11/10 04:26:58;;;;;;;33.67;30.47;;;2.50;99.90;;;;;;5033066;28;20841;-75
2021/11/10 04:29:24;;;;;;;37.83;29.73;;;2.50;99.90;;;;;;5032985;28;20454;-75
2021/11/10 04:31:51;;;;;;;33.00;29.70;;;2.50;99.90;;;;;;5032731;28;20479;-75
2021/11/10 04:34:19;;;;;;;32.90;29.77;;;2.50;99.90;;;;;;5032884;28;20461;-76
2021/11/10 04:36:46;;;;;;;31.47;28.33;;;2.50;99.90;;;;;;5032861;28;20486;-75
2021/11/10 04:39:14;;;;;;;33.07;29.87;;;2.50;99.90;;;;;;5032564;28;20490;-75
2021/11/10 04:41:41;;;;;;;34.03;30.93;;;2.40;99.90;;;;;;5032714;28;20943;-75
2021/11/10 04:44:08;;;;;;;34.80;31.60;;;2.40;99.90;;;;;;5032641;28;20453;-75
2021/11/10 04:46:35;;;;;;;37.57;33.80;;;2.40;99.90;;;;;;5032913;28;20472;-76
2021/11/10 04:49:03;;;;;;;34.07;30.67;;;2.30;99.90;;;;;;5032527;28;20515;-75
2021/11/10 04:51:29;;;;;;;37.07;33.67;;;2.30;99.90;;;;;;5032589;28;20455;-75
2021/11/10 04:53:57;;;;;;;36.77;33.03;;;2.30;99.90;;;;;;5032405;28;20459;-76
2021/11/10 04:56:25;;;;;;;36.47;32.70;;;2.30;99.90;;;;;;5032348;28;20449;-76
2021/11/10 04:58:52;;;;;;;34.87;31.77;;;2.30;99.90;;;;;;5031787;28;20716;-74
2021/11/10 05:01:24;;;;;;;34.97;31.50;;;2.20;99.90;;;;;;5031736;28;20532;-75
2021/11/10 05:03:51;;;;;;;34.73;31.60;;;2.20;99.90;;;;;;5032189;28;20956;-75
2021/11/10 05:06:19;;;;;;;33.10;30.07;;;2.30;99.90;;;;;;5032316;28;20457;-75
2021/11/10 05:08:46;;;;;;;34.43;31.30;;;2.20;99.90;;;;;;5032462;28;20789;-75
2021/11/10 05:11:12;;;;;;;34.57;31.30;;;2.10;99.90;;;;;;5032110;28;20961;-75
2021/11/10 05:13:40;;;;;;;36.27;32.50;;;2.20;99.90;;;;;;5032096;28;20454;-75
2021/11/10 05:16:07;;;;;;;34.23;31.30;;;2.10;99.90;;;;;;5031623;28;20484;-76
2021/11/10 05:18:34;;;;;;;33.50;30.40;;;2.20;99.90;;;;;;5032198;28;20502;-76
2021/11/10 05:21:01;;;;;;;36.53;32.70;;;2.20;99.90;;;;;;5032037;28;20453;-76
2021/11/10 05:23:28;;;;;;;39.53;35.70;;;2.20;99.90;;;;;;5032017;28;20456;-76
2021/11/10 05:25:55;;;;;;;38.90;34.57;;;2.10;99.90;;;;;;5032013;28;20810;-76
2021/11/10 05:28:21;;;;;;;37.23;33.83;;;2.10;99.90;;;;;;5031647;28;20452;-76
2021/11/10 05:30:49;;;;;;;40.73;34.50;;;2.10;99.90;;;;;;5031662;28;20474;-76
2021/11/10 05:33:16;;;;;;;38.73;35.00;;;2.00;99.90;;;;;;5031868;28;20448;-75
2021/11/10 05:35:43;;;;;;;41.60;34.10;;;2.00;99.90;;;;;;5031767;28;20451;-75
2021/11/10 05:38:10;;;;;;;36.37;32.80;;;1.90;99.90;;;;;;5031798;28;20575;-74
2021/11/10 05:40:37;;;;;;;39.80;35.27;;;1.90;99.90;;;;;;5031581;28;20456;-74
2021/11/10 05:43:04;;;;;;;34.87;31.13;;;1.90;99.90;;;;;;5031260;28;20492;-74
2021/11/10 05:45:31;;;;;;;38.00;34.20;;;1.90;99.90;;;;;;5031591;28;20466;-75
2021/11/10 05:47:59;;;;;;;33.23;30.33;;;1.90;99.90;;;;;;5031621;28;20461;-76
2021/11/10 05:50:26;;;;;;;32.53;29.57;;;1.90;99.90;;;;;;5031517;28;20449;-75
2021/11/10 05:52:53;;;;;;;32.90;29.90;;;2.00;99.90;;;;;;5031296;28;20457;-74
2021/11/10 05:55:24;;;;;;;34.87;31.63;;;2.00;99.90;;;;;;5031864;28;20450;-78
2021/11/10 05:57:51;;;;;;;32.90;29.57;;;2.10;99.90;;;;;;5036673;28;20467;-83
2021/11/10 06:00:18;;;;;;;33.17;29.93;;;2.10;99.90;;;;;;5034056;28;20470;-85
2021/11/10 06:02:45;;;;;;;38.43;31.70;;;2.10;99.90;;;;;;5032359;28;20473;-86
2021/11/10 06:05:16;;;;;;;35.97;32.33;;;2.20;99.90;;;;;;5032508;28;20457;-85
2021/11/10 06:07:45;;;;;;;34.70;31.37;;;2.20;99.90;;;;;;5034928;28;20432;-85
2021/11/10 06:10:12;;;;;;;32.10;29.33;;;2.30;99.90;;;;;;5036014;28;20444;-84
2021/11/10 06:12:39;;;;;;;31.43;28.60;;;2.30;99.90;;;;;;5040399;28;20448;-86
2021/11/10 06:15:07;;;;;;;31.10;28.33;;;2.30;99.90;;;;;;5036971;28;20480;-84
2021/11/10 06:17:34;;;;;;;32.70;27.97;;;2.30;99.90;;;;;;5032973;28;20446;-85
2021/11/10 06:20:02;;;;;;;31.53;28.47;;;2.30;99.90;;;;;;5033721;28;20852;-84
2021/11/10 06:22:31;;;;;;;30.03;27.23;;;2.30;99.90;;;;;;5043932;28;20449;-85
2021/11/10 06:24:58;;;;;;;32.23;29.17;;;2.30;99.90;;;;;;5039902;28;20479;-84
2021/11/10 06:27:25;;;;;;;31.57;28.63;;;2.30;99.90;;;;;;5032964;28;20458;-85
2021/11/10 06:29:51;;;;;;;30.10;27.40;;;2.30;99.90;;;;;;5031496;28;20454;-82
2021/11/10 06:32:18;;;;;;;33.00;29.90;;;2.20;99.90;;;;;;5031756;28;20460;-83
2021/11/10 06:34:45;;;;;;;31.40;28.57;;;2.20;99.90;;;;;;5039260;28;20446;-86
2021/11/10 06:37:21;;;;;;;39.27;32.80;;;2.20;99.90;;;;;;5045302;28;20469;-88
2021/11/10 06:39:50;;;;;;;33.47;29.97;;;2.20;99.90;;;;;;5043391;28;20480;-84
2021/11/10 06:42:16;;;;;;;30.67;27.57;;;2.30;99.90;;;;;;5035602;28;20454;-83
2021/11/10 06:44:43;;;;;;;27.33;24.47;;;2.30;99.90;;;;;;5033381;28;20783;-84
2021/11/10 06:47:10;;;;;;;31.67;27.83;;;2.30;99.90;;;;;;5037617;28;20450;-85
2021/11/10 06:49:37;;;;;;;31.20;28.10;;;2.40;99.90;;;;;;5039639;28;20441;-87
2021/11/10 06:52:04;;;;;;;35.57;31.73;;;2.40;99.90;;;;;;5040448;28;20458;-85
2021/11/10 06:54:31;;;;;;;34.40;29.57;;;2.40;99.90;;;;;;5032651;28;20817;-84
2021/11/10 06:56:59;;;;;;;37.47;30.50;;;2.40;99.90;;;;;;5032638;28;20811;-85
2021/11/10 06:59:26;;;;;;;32.30;28.93;;;2.40;99.90;;;;;;5036034;28;20490;-86
2021/11/10 07:01:53;;;;;;;30.87;27.83;;;2.50;99.90;;;;;;5043651;28;20453;-85
2021/11/10 07:04:20;;;;;;;36.83;28.73;;;2.60;99.90;;;;;;5043036;28;20452;-87
2021/11/10 07:06:46;;;;;;;34.30;31.10;;;2.60;99.90;;;;;;5047717;28;20459;-86
2021/11/10 07:09:13;;;;;;;31.50;28.53;;;2.60;99.90;;;;;;5040023;28;20451;-83
2021/11/10 07:11:40;;;;;;;29.83;27.10;;;2.70;99.90;;;;;;5038524;28;20464;-85
2021/11/10 07:14:09;;;;;;;32.80;29.13;;;2.80;99.90;;;;;;5041330;28;20452;-86
2021/11/10 07:16:36;;;;;;;31.83;28.80;;;2.90;99.90;;;;;;5032074;28;20480;-86
2021/11/10 07:19:04;;;;;;;28.80;25.70;;;2.90;99.90;;;;;;5034063;28;20491;-87
2021/11/10 07:21:31;;;;;;;30.27;27.23;;;3.00;99.90;;;;;;5033135;28;20459;-86
2021/11/10 07:23:58;;;;;;;31.37;27.93;;;3.10;99.90;;;;;;5043827;28;20818;-85
2021/11/10 07:26:25;;;;;;;30.60;27.00;;;3.20;99.90;;;;;;5042868;28;20453;-84
2021/11/10 07:28:52;;;;;;;31.63;25.67;;;3.40;99.90;;;;;;5036578;28;20472;-84
2021/11/10 07:31:21;;;;;;;28.07;25.37;;;3.50;99.90;;;;;;5034307;28;20473;-82
2021/11/10 07:33:47;;;;;;;28.30;25.60;;;3.80;99.90;;;;;;5037623;28;20453;-86
2021/11/10 07:36:14;;;;;;;31.03;26.13;;;3.90;99.90;;;;;;5041794;28;20452;-84
2021/11/10 07:38:41;;;;;;;27.93;25.17;;;3.90;99.90;;;;;;5034520;28;20457;-84
2021/11/10 07:41:08;;;;;;;27.60;25.00;;;4.00;99.90;;;;;;5036428;28;20445;-83
2021/11/10 07:43:35;;;;;;;29.53;26.77;;;4.10;99.90;;;;;;5034029;28;20457;-82
2021/11/10 07:46:07;;;;;;;26.73;23.90;;;4.20;99.90;;;;;;5033862;28;20477;-82
2021/11/10 07:48:35;;;;;;;29.07;25.77;;;4.40;99.90;;;;;;5033887;28;20472;-78
2021/11/10 07:51:03;;;;;;;28.40;23.87;;;4.40;99.90;;;;;;5033788;28;20445;-79
2021/11/10 07:53:30;;;;;;;29.03;26.10;;;4.60;99.90;;;;;;5033552;28;20963;-79
2021/11/10 07:55:57;;;;;;;29.20;26.53;;;4.80;99.90;;;;;;5033770;28;20455;-83
2021/11/10 07:58:23;;;;;;;28.53;25.80;;;5.00;99.90;;;;;;5034691;28;20457;-83
2021/11/10 08:00:50;;;;;;;28.37;25.60;;;5.30;99.90;;;;;;5035650;28;20486;-81
2021/11/10 08:03:17;;;;;;;27.07;24.47;;;5.60;99.90;;;;;;5034165;28;20451;-79
2021/11/10 08:05:45;;;;;;;27.67;24.90;;;5.80;99.90;;;;;;5033596;28;20453;-73
2021/11/10 08:08:12;;;;;;;27.77;25.17;;;5.90;99.90;;;;;;5033599;28;20458;-76
2021/11/10 08:10:38;;;;;;;27.33;24.73;;;5.70;99.90;;;;;;5033080;28;20868;-75
2021/11/10 08:13:05;;;;;;;28.73;24.33;;;5.50;99.90;;;;;;5032704;28;20460;-75
2021/11/10 08:15:33;;;;;;;27.37;24.70;;;5.50;99.90;;;;;;5032408;28;20484;-75
2021/11/10 08:17:59;;;;;;;26.90;24.17;;;5.50;99.90;;;;;;5032390;28;20974;-75
2021/11/10 08:20:26;;;;;;;30.93;28.10;;;5.50;99.90;;;;;;5032279;28;20570;-76
2021/11/10 08:22:54;;;;;;;41.60;30.23;;;5.50;99.90;;;;;;5032316;28;20449;-77
2021/11/10 08:25:21;;;;;;;32.27;28.97;;;5.30;99.90;;;;;;5032218;28;20466;-77
2021/11/10 08:27:48;;;;;;;30.97;27.87;;;5.30;99.90;;;;;;5032283;28;20475;-77
2021/11/10 08:30:17;;;;;;;31.60;27.00;;;5.40;99.90;;;;;;5032094;28;20462;-76
2021/11/10 08:32:44;;;;;;;26.07;23.43;;;5.50;99.90;;;;;;5032169;28;20560;-76
2021/11/10 08:35:12;;;;;;;28.33;25.50;;;5.50;99.90;;;;;;5032013;28;20453;-77
2021/11/10 08:37:39;;;;;;;28.43;25.80;;;5.50;99.90;;;;;;5032230;28;20530;-77
2021/11/10 08:40:10;;;;;;;30.40;27.50;;;5.40;99.90;;;;;;5032430;28;20503;-77
2021/11/10 08:42:37;;;;;;;28.00;25.30;;;5.30;99.90;;;;;;5047886;28;20467;-76
2021/11/10 08:45:09;;;;;;;25.83;23.20;;;5.50;99.90;;;;;;5051787;28;20813;-76
2021/11/10 08:47:37;;;;;;;26.80;24.00;;;5.40;99.90;;;;;;5051876;28;20452;-75
2021/11/10 08:50:05;;;;;;;25.40;23.10;;;5.30;99.90;;;;;;5051815;28;20477;-76
2021/11/10 08:52:31;;;;;;;23.67;21.53;;;5.30;99.90;;;;;;5053985;28;20945;-76
2021/11/10 08:54:58;;;;;;;27.27;24.87;;;5.30;99.90;;;;;;5052172;28;20456;-76
2021/11/10 08:57:26;;;;;;;28.47;25.70;;;5.40;99.90;;;;;;5051474;28;20444;-76
2021/11/10 08:59:53;;;;;;;27.07;24.17;;;5.50;99.90;;;;;;5051682;28;20485;-76
2021/11/10 09:02:20;;;;;;;30.40;27.57;;;5.40;99.90;;;;;;5051650;28;20462;-76
2021/11/10 09:04:47;;;;;;;26.73;24.20;;;5.40;99.90;;;;;;5051739;28;20454;-76
2021/11/10 09:07:13;;;;;;;28.03;24.90;;;5.30;99.90;;;;;;5051574;28;20455;-76
2021/11/10 09:09:40;;;;;;;26.77;24.43;;;5.40;99.90;;;;;;5042673;28;20472;-76
2021/11/10 09:12:09;;;;;;;27.93;25.13;;;5.50;99.90;;;;;;5031180;28;20556;-76
2021/11/10 09:14:37;;;;;;;28.77;26.30;;;5.40;99.90;;;;;;5031172;28;20458;-76
2021/11/10 09:17:04;;;;;;;28.30;25.67;;;5.40;99.90;;;;;;5031276;28;20748;-76
2021/11/10 09:19:31;;;;;;;50.83;39.10;;;5.50;99.90;;;;;;5029380;28;20495;-75
2021/11/10 09:21:58;;;;;;;30.40;27.27;;;5.60;99.90;;;;;;5032022;28;20467;-77
2021/11/10 09:24:25;;;;;;;26.43;24.03;;;5.70;99.90;;;;;;5030316;28;20450;-75
2021/11/10 09:26:51;;;;;;;28.47;25.47;;;5.70;99.90;;;;;;5031529;28;20449;-75
2021/11/10 09:29:19;;;;;;;28.83;26.13;;;5.70;99.90;;;;;;5031506;28;20445;-76
2021/11/10 09:31:48;;;;;;;28.40;25.70;;;5.80;99.90;;;;;;5031465;28;20496;-76
2021/11/10 09:34:15;;;;;;;29.13;26.17;;;5.90;99.90;;;;;;5031475;28;20456;-76
2021/11/10 09:36:46;;;;;;;28.30;25.80;;;6.00;99.90;;;;;;5031485;28;20530;-77
2021/11/10 09:39:13;;;;;;;28.60;25.60;;;6.20;99.90;;;;;;5031500;28;20456;-76
2021/11/10 09:41:41;;;;;;;30.87;28.07;;;6.20;99.90;;;;;;5031163;28;20457;-75
2021/11/10 09:44:08;;;;;;;32.43;28.93;;;6.20;99.90;;;;;;5031267;28;20445;-76
2021/11/10 09:46:36;;;;;;;30.77;27.63;;;6.20;99.90;;;;;;5031001;28;20557;-76
2021/11/10 09:49:04;;;;;;;31.80;29.00;;;6.30;99.90;;;;;;5031549;28;20452;-76
2021/11/10 09:51:30;;;;;;;33.27;28.77;;;6.50;99.90;;;;;;5031399;28;20459;-76
2021/11/10 09:53:58;;;;;;;34.90;29.23;;;6.50;99.90;;;;;;5031082;28;20453;-76
2021/11/10 09:56:25;;;;;;;34.30;30.67;;;6.40;99.90;;;;;;5031147;28;20459;-77
2021/11/10 09:58:52;;;;;;;33.30;30.03;;;6.30;99.90;;;;;;5031233;28;20627;-75
2021/11/10 10:01:21;;;;;;;33.47;30.47;;;6.40;99.90;;;;;;5030869;28;20491;-76
2021/11/10 10:03:48;;;;;;;31.70;28.40;;;6.50;99.90;;;;;;5030905;28;20460;-76
2021/11/10 10:06:16;;;;;;;34.87;30.00;;;6.60;99.90;;;;;;5031016;28;20474;-76
2021/11/10 10:08:43;;;;;;;34.90;31.23;;;6.60;99.90;;;;;;5031010;28;20456;-76
2021/11/10 10:11:11;;;;;;;31.60;28.30;;;6.70;99.90;;;;;;5030902;28;21057;-75
2021/11/10 10:13:38;;;;;;;31.70;28.80;;;6.70;99.90;;;;;;5031198;28;20452;-76
2021/11/10 10:16:06;;;;;;;30.30;27.40;;;6.70;99.90;;;;;;5030790;28;20490;-76
2021/11/10 10:18:33;;;;;;;30.70;27.60;;;6.70;99.90;;;;;;5030813;28;20456;-76
2021/11/10 10:21:02;;;;;;;31.27;28.10;;;6.80;99.90;;;;;;5030617;28;20892;-76
2021/11/10 10:23:34;;;;;;;32.00;29.10;;;6.90;99.90;;;;;;5030649;28;20460;-75
2021/11/10 10:26:06;;;;;;;31.63;28.47;;;6.90;99.90;;;;;;5030571;28;20939;-75
2021/11/10 10:28:35;;;;;;;30.70;27.73;;;7.00;99.90;;;;;;5030695;28;20459;-76
2021/11/10 10:31:04;;;;;;;30.93;27.63;;;7.00;99.90;;;;;;5030576;28;21010;-76
2021/11/10 10:33:35;;;;;;;37.00;30.70;;;7.20;99.90;;;;;;5030521;28;20467;-76
2021/11/10 10:36:07;;;;;;;29.80;27.00;;;7.30;99.90;;;;;;5030755;28;20464;-76
2021/11/10 10:38:38;;;;;;;30.03;26.97;;;7.50;99.90;;;;;;5030451;28;20460;-76
2021/11/10 10:41:07;;;;;;;34.37;28.70;;;7.70;99.90;;;;;;5030504;28;20485;-76
2021/11/10 10:43:39;;;;;;;27.77;24.97;;;7.80;99.90;;;;;;5030471;28;20457;-76
2021/11/10 10:46:06;;;;;;;26.10;23.80;;;8.00;99.90;;;;;;5030445;28;20452;-77
2021/11/10 10:48:33;;;;;;;27.90;25.23;;;8.10;99.90;;;;;;5030425;28;20457;-77
2021/11/10 10:51:03;;;;;;;28.70;26.00;;;7.90;99.90;;;;;;5030700;28;20448;-78
2021/11/10 10:53:38;;;;;;;27.70;24.67;;;7.80;99.90;;;;;;5030449;28;20479;-77
2021/11/10 10:56:20;;;;;;;29.37;26.90;;;7.90;99.90;;;;;;5030725;28;20458;-76
2021/11/10 10:58:48;;;;;;;29.30;26.27;;;7.80;99.90;;;;;;5033030;28;20449;-76
2021/11/10 11:01:27;;;;;;;29.00;26.00;;;7.80;99.90;;;;;;5034296;28;20488;-76
2021/11/10 11:04:02;;;;;;;29.33;26.40;;;7.90;99.90;;;;;;5034387;28;20884;-76
2021/11/10 11:06:38;;;;;;;28.30;25.60;;;8.00;99.90;;;;;;5034151;28;20448;-77
2021/11/10 11:09:15;;;;;;;26.63;24.23;;;8.40;99.90;;;;;;5034084;28;20456;-78
2021/11/10 11:12:00;;;;;;;29.80;26.80;;;8.70;99.90;;;;;;5034290;28;20452;-76
2021/11/10 11:14:41;;;;;;;32.77;28.10;;;8.90;99.90;;;;;;5033759;28;20452;-77
2021/11/10 11:17:22;;;;;;;31.17;28.00;;;8.90;99.90;;;;;;5033595;28;20518;-77
2021/11/10 11:19:50;;;;;;;31.27;28.03;;;8.40;99.90;;;;;;5033770;28;20521;-77
2021/11/10 11:22:17;;;;;;;36.30;32.47;;;8.20;99.90;;;;;;5033750;28;20445;-77
2021/11/10 11:24:45;;;;;;;31.60;28.40;;;8.50;99.90;;;;;;5033812;28;20504;-76
2021/11/10 11:27:28;;;;;;;32.40;29.33;;;8.60;99.90;;;;;;5033703;28;20460;-78
2021/11/10 11:29:58;;;;;;;32.80;29.50;;;8.90;99.90;;;;;;5031955;28;20473;-77
2021/11/10 11:32:27;;;;;;;33.77;30.20;;;9.50;99.90;;;;;;5033763;28;20479;-77
2021/11/10 11:34:58;;;;;;;34.43;28.03;;;9.80;99.90;;;;;;5033796;28;20444;-77
2021/11/10 11:37:26;;;;;;;31.60;28.30;;;10.40;99.90;;;;;;5033709;28;20449;-77
2021/11/10 11:39:55;;;;;;;31.13;28.03;;;11.10;99.90;;;;;;5033581;28;20487;-77
2021/11/10 11:42:22;;;;;;;29.90;27.20;;;11.20;99.90;;;;;;5033550;28;20939;-77
2021/11/10 11:44:49;;;;;;;33.13;29.93;;;11.30;99.90;;;;;;5033516;28;20457;-77
2021/11/10 11:47:18;;;;;;;28.13;25.70;;;11.50;99.90;;;;;;5033466;28;20453;-77
2021/11/10 11:49:47;;;;;;;29.40;26.97;;;11.20;99.90;;;;;;5033491;28;20453;-78
2021/11/10 11:52:15;;;;;;;30.00;27.17;;;10.90;99.90;;;;;;5033365;28;20488;-77
2021/11/10 11:54:44;;;;;;;30.40;27.53;;;10.50;99.90;;;;;;5033355;28;20464;-78
2021/11/10 11:57:17;;;;;;;31.07;28.37;;;10.40;99.90;;;;;;5033191;28;20808;-77
2021/11/10 11:59:46;;;;;;;36.50;30.37;;;10.30;99.90;;;;;;5033359;28;20457;-76
2021/11/10 12:02:27;;;;;;;32.77;29.73;;;10.20;99.90;;;;;;5033226;28;20938;-76
2021/11/10 12:04:56;;;;;;;31.40;28.63;;;9.90;99.90;;;;;;5033240;28;20451;-78
2021/11/10 12:07:47;;;;;;;29.73;27.00;;;9.80;99.90;;;;;;5033256;28;20449;-77
2021/11/10 12:10:39;;;;;;;31.43;28.53;;;9.80;99.90;;;;;;5032775;28;20453;-77
2021/11/10 12:13:19;;;;;;;30.90;27.87;;;9.80;99.90;;;;;;5024731;28;20464;-77
2021/11/10 12:16:14;;;;;;;31.50;28.63;;;10.30;99.90;;;;;;5032699;28;20488;-76
2021/11/10 12:18:57;;;;;;;32.13;29.20;;;10.30;99.90;;;;;;5033039;28;20453;-78
2021/11/10 12:21:39;;;;;;;30.70;27.87;;;10.00;99.90;;;;;;5032835;28;20480;-77
2021/11/10 12:24:11;;;;;;;32.13;28.90;;;10.10;99.90;;;;;;5032736;28;20504;-78
2021/11/10 12:27:13;;;;;;;31.13;28.13;;;10.10;99.90;;;;;;5032769;28;20460;-77
2021/11/10 12:29:57;;;;;;;28.77;26.00;;;10.50;99.90;;;;;;5007013;28;20456;-78
2021/11/10 12:32:45;;;;;;;32.30;29.10;;;11.20;99.90;;;;;;5032492;28;20476;-78
2021/11/10 12:35:22;;;;;;;30.00;27.30;;;11.30;99.90;;;;;;5032375;28;20453;-78
2021/11/10 12:37:51;;;;;;;29.43;26.53;;;12.20;99.90;;;;;;5032892;28;20448;-76
2021/11/10 12:40:20;;;;;;;34.00;30.33;;;12.20;99.90;;;;;;5032490;28;20486;-77
2021/11/10 12:42:53;;;;;;;35.53;31.87;;;12.30;99.90;;;;;;5032281;28;20445;-76